sensor_id;sensor_type;location;lat;lon;timestamp;P1;durP1;ratioP1;P2;durP2;ratioP2
29414;SDS011;20303;48.302;11.914;2023-05-07T00:09:30;2.38;;;1.55;;
29414;SDS011;20303;48.302;11.914;2023-05-07T00:19:31;2.08;;;1.65;;
29414;SDS011;20303;48.302;11.914;2023-05-07T00:29:32;2.47;;;1.50;;
29414;SDS011;20303;48.302;11.914;2023-05-07T00:39:34;2.63;;;1.73;;
29414;SDS011;20303;48.302;11.914;2023-05-07T00:49:38;2.08;;;1.50;;
29414;SDS011;20303;48.302;11.914;2023-05-07T00:59:43;2.92;;;1.70;;
29414;SDS011;20303;48.302;11.914;2023-05-07T01:09:44;2.38;;;1.60;;
29414;SDS011;20303;48.302;11.914;2023-05-07T01:19:45;2.90;;;1.75;;
29414;SDS011;20303;48.302;11.914;2023-05-07T01:29:47;2.95;;;1.45;;
29414;SDS011;20303;48.302;11.914;2023-05-07T01:39:48;2.15;;;1.65;;
29414;SDS011;20303;48.302;11.914;2023-05-07T01:49:50;2.45;;;1.60;;
29414;SDS011;20303;48.302;11.914;2023-05-07T01:59:51;2.80;;;1.50;;
29414;SDS011;20303;48.302;11.914;2023-05-07T02:09:52;2.97;;;1.60;;
29414;SDS011;20303;48.302;11.914;2023-05-07T02:19:55;1.88;;;1.67;;
29414;SDS011;20303;48.302;11.914;2023-05-07T02:29:56;2.63;;;1.58;;
29414;SDS011;20303;48.302;11.914;2023-05-07T02:39:57;1.73;;;1.63;;
29414;SDS011;20303;48.302;11.914;2023-05-07T02:49:58;2.35;;;2.00;;
29414;SDS011;20303;48.302;11.914;2023-05-07T02:59:59;3.03;;;1.70;;
29414;SDS011;20303;48.302;11.914;2023-05-07T03:10:06;1.88;;;1.70;;
29414;SDS011;20303;48.302;11.914;2023-05-07T03:20:07;1.73;;;1.52;;
29414;SDS011;20303;48.302;11.914;2023-05-07T03:30:09;1.90;;;1.70;;
29414;SDS011;20303;48.302;11.914;2023-05-07T03:40:11;2.25;;;1.60;;
29414;SDS011;20303;48.302;11.914;2023-05-07T03:50:12;1.70;;;1.60;;
29414;SDS011;20303;48.302;11.914;2023-05-07T04:00:13;2.50;;;1.63;;
29414;SDS011;20303;48.302;11.914;2023-05-07T04:10:14;2.20;;;1.67;;
29414;SDS011;20303;48.302;11.914;2023-05-07T04:20:16;2.55;;;1.60;;
29414;SDS011;20303;48.302;11.914;2023-05-07T04:30:17;1.60;;;1.50;;
29414;SDS011;20303;48.302;11.914;2023-05-07T04:40:18;1.90;;;1.60;;
29414;SDS011;20303;48.302;11.914;2023-05-07T04:50:19;3.03;;;1.70;;
29414;SDS011;20303;48.302;11.914;2023-05-07T05:00:23;1.90;;;1.65;;
29414;SDS011;20303;48.302;11.914;2023-05-07T05:10:25;1.80;;;1.55;;
29414;SDS011;20303;48.302;11.914;2023-05-07T05:20:26;1.85;;;1.65;;
29414;SDS011;20303;48.302;11.914;2023-05-07T05:30:27;3.65;;;1.60;;
29414;SDS011;20303;48.302;11.914;2023-05-07T05:40:28;1.77;;;1.60;;
29414;SDS011;20303;48.302;11.914;2023-05-07T05:50:29;2.33;;;1.50;;
29414;SDS011;20303;48.302;11.914;2023-05-07T06:00:30;1.80;;;1.42;;
29414;SDS011;20303;48.302;11.914;2023-05-07T06:10:31;1.50;;;1.40;;
29414;SDS011;20303;48.302;11.914;2023-05-07T06:20:32;1.33;;;1.20;;
29414;SDS011;20303;48.302;11.914;2023-05-07T06:30:33;1.65;;;1.55;;
29414;SDS011;20303;48.302;11.914;2023-05-07T06:40:34;1.50;;;1.40;;
29414;SDS011;20303;48.302;11.914;2023-05-07T06:50:35;1.40;;;1.30;;
29414;SDS011;20303;48.302;11.914;2023-05-07T07:00:36;1.65;;;1.45;;
29414;SDS011;20303;48.302;11.914;2023-05-07T07:10:37;2.15;;;1.45;;
29414;SDS011;20303;48.302;11.914;2023-05-07T07:20:38;5.32;;;1.70;;
29414;SDS011;20303;48.302;11.914;2023-05-07T07:30:40;3.13;;;1.80;;
29414;SDS011;20303;48.302;11.914;2023-05-07T07:40:41;2.58;;;1.70;;
29414;SDS011;20303;48.302;11.914;2023-05-07T07:50:43;3.67;;;1.70;;
29414;SDS011;20303;48.302;11.914;2023-05-07T08:00:44;3.03;;;1.70;;
29414;SDS011;20303;48.302;11.914;2023-05-07T08:10:47;2.92;;;1.90;;
29414;SDS011;20303;48.302;11.914;2023-05-07T08:20:50;2.13;;;1.80;;
29414;SDS011;20303;48.302;11.914;2023-05-07T08:30:51;2.22;;;1.83;;
29414;SDS011;20303;48.302;11.914;2023-05-07T08:40:52;3.25;;;1.70;;
29414;SDS011;20303;48.302;11.914;2023-05-07T08:50:53;2.63;;;1.85;;
29414;SDS011;20303;48.302;11.914;2023-05-07T09:00:54;3.47;;;2.00;;
29414;SDS011;20303;48.302;11.914;2023-05-07T09:10:55;2.50;;;2.00;;
29414;SDS011;20303;48.302;11.914;2023-05-07T09:20:56;2.60;;;2.10;;
29414;SDS011;20303;48.302;11.914;2023-05-07T09:30:57;3.97;;;1.90;;
29414;SDS011;20303;48.302;11.914;2023-05-07T09:41:03;2.53;;;2.00;;
29414;SDS011;20303;48.302;11.914;2023-05-07T09:51:43;3.20;;;2.13;;
29414;SDS011;20303;48.302;11.914;2023-05-07T10:01:43;2.40;;;2.20;;
29414;SDS011;20303;48.302;11.914;2023-05-07T10:11:44;3.20;;;1.90;;
29414;SDS011;20303;48.302;11.914;2023-05-07T10:21:51;3.00;;;2.15;;
29414;SDS011;20303;48.302;11.914;2023-05-07T10:32:07;2.10;;;1.80;;
29414;SDS011;20303;48.302;11.914;2023-05-07T10:42:30;3.05;;;1.90;;
29414;SDS011;20303;48.302;11.914;2023-05-07T10:52:31;2.58;;;2.10;;
29414;SDS011;20303;48.302;11.914;2023-05-07T11:12:58;2.83;;;1.90;;
29414;SDS011;20303;48.302;11.914;2023-05-07T11:22:59;2.35;;;1.77;;
29414;SDS011;20303;48.302;11.914;2023-05-07T11:33:00;2.55;;;1.65;;
29414;SDS011;20303;48.302;11.914;2023-05-07T11:43:10;2.42;;;1.80;;
29414;SDS011;20303;48.302;11.914;2023-05-07T11:53:11;3.10;;;1.77;;
29414;SDS011;20303;48.302;11.914;2023-05-07T12:03:12;2.15;;;1.70;;
29414;SDS011;20303;48.302;11.914;2023-05-07T12:13:23;2.30;;;1.80;;
29414;SDS011;20303;48.302;11.914;2023-05-07T12:23:25;2.47;;;1.65;;
29414;SDS011;20303;48.302;11.914;2023-05-07T12:33:27;1.90;;;1.58;;
29414;SDS011;20303;48.302;11.914;2023-05-07T12:43:28;2.50;;;1.65;;
29414;SDS011;20303;48.302;11.914;2023-05-07T12:53:30;2.88;;;1.77;;
29414;SDS011;20303;48.302;11.914;2023-05-07T13:03:31;2.83;;;1.70;;
29414;SDS011;20303;48.302;11.914;2023-05-07T13:13:34;1.95;;;1.65;;
29414;SDS011;20303;48.302;11.914;2023-05-07T13:23:36;2.20;;;1.60;;
29414;SDS011;20303;48.302;11.914;2023-05-07T13:33:38;1.83;;;1.60;;
29414;SDS011;20303;48.302;11.914;2023-05-07T13:43:39;3.03;;;1.75;;
29414;SDS011;20303;48.302;11.914;2023-05-07T13:53:40;2.30;;;1.50;;
29414;SDS011;20303;48.302;11.914;2023-05-07T14:03:41;2.15;;;1.48;;
29414;SDS011;20303;48.302;11.914;2023-05-07T14:13:43;1.85;;;1.48;;
29414;SDS011;20303;48.302;11.914;2023-05-07T14:23:44;2.03;;;1.50;;
29414;SDS011;20303;48.302;11.914;2023-05-07T14:33:45;2.17;;;1.50;;
29414;SDS011;20303;48.302;11.914;2023-05-07T14:43:47;2.00;;;1.50;;
29414;SDS011;20303;48.302;11.914;2023-05-07T14:53:50;1.73;;;1.58;;
29414;SDS011;20303;48.302;11.914;2023-05-07T15:03:51;1.60;;;1.50;;
29414;SDS011;20303;48.302;11.914;2023-05-07T15:13:52;1.77;;;1.40;;
29414;SDS011;20303;48.302;11.914;2023-05-07T15:23:53;2.40;;;1.52;;
29414;SDS011;20303;48.302;11.914;2023-05-07T15:33:54;2.15;;;1.83;;
29414;SDS011;20303;48.302;11.914;2023-05-07T15:43:56;2.22;;;1.70;;
29414;SDS011;20303;48.302;11.914;2023-05-07T15:53:57;1.90;;;1.70;;
29414;SDS011;20303;48.302;11.914;2023-05-07T16:03:58;2.05;;;1.70;;
29414;SDS011;20303;48.302;11.914;2023-05-07T16:13:59;1.90;;;1.70;;
29414;SDS011;20303;48.302;11.914;2023-05-07T16:24:00;2.08;;;1.58;;
29414;SDS011;20303;48.302;11.914;2023-05-07T16:34:01;1.88;;;1.67;;
29414;SDS011;20303;48.302;11.914;2023-05-07T16:44:02;1.70;;;1.50;;
29414;SDS011;20303;48.302;11.914;2023-05-07T16:54:04;1.98;;;1.70;;
29414;SDS011;20303;48.302;11.914;2023-05-07T17:04:05;2.10;;;1.70;;
29414;SDS011;20303;48.302;11.914;2023-05-07T17:14:06;2.70;;;1.83;;
29414;SDS011;20303;48.302;11.914;2023-05-07T17:24:07;2.00;;;1.70;;
29414;SDS011;20303;48.302;11.914;2023-05-07T17:34:08;1.80;;;1.70;;
29414;SDS011;20303;48.302;11.914;2023-05-07T17:44:09;2.53;;;1.70;;
29414;SDS011;20303;48.302;11.914;2023-05-07T17:54:10;2.70;;;1.80;;
29414;SDS011;20303;48.302;11.914;2023-05-07T18:04:11;1.90;;;1.70;;
29414;SDS011;20303;48.302;11.914;2023-05-07T18:14:12;2.25;;;1.60;;
29414;SDS011;20303;48.302;11.914;2023-05-07T18:24:13;2.38;;;1.70;;
29414;SDS011;20303;48.302;11.914;2023-05-07T18:34:14;2.10;;;1.77;;
29414;SDS011;20303;48.302;11.914;2023-05-07T18:44:15;2.38;;;2.17;;
29414;SDS011;20303;48.302;11.914;2023-05-07T18:54:16;2.55;;;2.10;;
29414;SDS011;20303;48.302;11.914;2023-05-07T19:04:17;2.58;;;2.30;;
29414;SDS011;20303;48.302;11.914;2023-05-07T19:14:19;2.80;;;2.50;;
29414;SDS011;20303;48.302;11.914;2023-05-07T19:24:20;2.80;;;2.33;;
29414;SDS011;20303;48.302;11.914;2023-05-07T19:34:21;2.63;;;2.42;;
29414;SDS011;20303;48.302;11.914;2023-05-07T19:44:22;2.72;;;2.53;;
29414;SDS011;20303;48.302;11.914;2023-05-07T19:54:23;2.78;;;2.58;;
29414;SDS011;20303;48.302;11.914;2023-05-07T20:04:25;3.05;;;2.47;;
29414;SDS011;20303;48.302;11.914;2023-05-07T20:14:30;2.97;;;2.45;;
29414;SDS011;20303;48.302;11.914;2023-05-07T20:24:35;2.88;;;2.60;;
29414;SDS011;20303;48.302;11.914;2023-05-07T20:34:37;3.50;;;2.72;;
29414;SDS011;20303;48.302;11.914;2023-05-07T20:44:38;3.38;;;2.80;;
29414;SDS011;20303;48.302;11.914;2023-05-07T20:54:39;3.13;;;2.83;;
29414;SDS011;20303;48.302;11.914;2023-05-07T21:04:42;3.30;;;2.97;;
29414;SDS011;20303;48.302;11.914;2023-05-07T21:14:43;3.25;;;2.95;;
29414;SDS011;20303;48.302;11.914;2023-05-07T21:24:44;3.20;;;2.90;;
29414;SDS011;20303;48.302;11.914;2023-05-07T21:34:45;3.83;;;3.08;;
29414;SDS011;20303;48.302;11.914;2023-05-07T21:44:46;3.15;;;2.85;;
29414;SDS011;20303;48.302;11.914;2023-05-07T21:54:50;3.13;;;2.83;;
29414;SDS011;20303;48.302;11.914;2023-05-07T22:04:52;3.22;;;2.92;;
29414;SDS011;20303;48.302;11.914;2023-05-07T22:14:53;3.65;;;3.15;;
29414;SDS011;20303;48.302;11.914;2023-05-07T22:24:54;3.47;;;3.17;;
29414;SDS011;20303;48.302;11.914;2023-05-07T22:34:55;3.40;;;3.10;;
29414;SDS011;20303;48.302;11.914;2023-05-07T22:44:56;3.50;;;3.20;;
29414;SDS011;20303;48.302;11.914;2023-05-07T22:54:57;3.53;;;3.20;;
29414;SDS011;20303;48.302;11.914;2023-05-07T23:04:58;4.05;;;3.60;;
29414;SDS011;20303;48.302;11.914;2023-05-07T23:15:00;3.38;;;3.08;;
29414;SDS011;20303;48.302;11.914;2023-05-07T23:25:01;3.50;;;3.20;;
29414;SDS011;20303;48.302;11.914;2023-05-07T23:35:03;3.63;;;3.33;;
29414;SDS011;20303;48.302;11.914;2023-05-07T23:45:05;3.60;;;3.30;;
29414;SDS011;20303;48.302;11.914;2023-05-07T23:55:06;3.85;;;3.45;;
